Time;durP1;ratioP1;P1;durP2;ratioP2;P2;SDS_P1;SDS_P2;PMS_P1;PMS_P2;Temp;Humidity;BMP_temperature;BMP_pressure;BME280_temperature;BME280_humidity;BME280_pressure;Samples;Min_cycle;Max_cycle;Signal;HPM_P1;HPM_P2
2022/04/26 03:37:32;;;;;;;20.50;9.27;;;;;;;9.77;100.00;101042.69;5066048;28;20382;-72
2022/04/26 03:39:59;;;;;;;22.83;10.90;;;;;;;9.72;100.00;101049.34;5067918;28;20294;-74
2022/04/26 03:42:25;;;;;;;23.30;9.98;;;;;;;9.72;100.00;101048.56;5065876;28;20048;-72
2022/04/26 03:44:52;;;;;;;22.55;10.25;;;;;;;9.72;100.00;101049.34;5068552;28;20456;-72
2022/04/26 03:47:18;;;;;;;22.95;10.68;;;;;;;9.74;100.00;101049.78;5062325;28;20071;-72
2022/04/26 03:49:45;;;;;;;23.65;11.40;;;;;;;9.73;100.00;101059.25;5067433;28;20055;-73
2022/04/26 03:52:11;;;;;;;21.30;10.02;;;;;;;9.74;100.00;101052.53;5070265;28;20083;-73
2022/04/26 03:54:38;;;;;;;23.77;9.82;;;;;;;9.74;100.00;101060.03;5055315;28;20086;-72
2022/04/26 03:57:05;;;;;;;25.50;10.57;;;;;;;9.76;100.00;101058.44;5066768;28;20079;-71
2022/04/26 03:59:32;;;;;;;23.08;10.10;;;;;;;9.74;100.00;101060.81;5067433;28;20048;-71
2022/04/26 04:01:59;;;;;;;21.70;10.60;;;;;;;9.71;100.00;101058.03;5066629;28;20048;-72
2022/04/26 04:04:26;;;;;;;24.92;11.50;;;;;;;9.73;100.00;101058.44;5067806;28;20121;-70
2022/04/26 04:06:53;;;;;;;25.00;10.75;;;;;;;9.77;100.00;101068.34;5067257;28;20044;-73
2022/04/26 04:09:19;;;;;;;23.35;10.77;;;;;;;9.79;100.00;101073.50;5072769;28;20424;-73
2022/04/26 04:11:45;;;;;;;24.27;10.55;;;;;;;9.81;100.00;101074.69;5068384;28;20052;-72
2022/04/26 04:14:14;;;;;;;23.42;11.00;;;;;;;9.79;100.00;101065.97;5070287;28;20053;-73
2022/04/26 04:16:40;;;;;;;26.58;12.38;;;;;;;9.83;100.00;101068.78;5070180;28;20144;-74
2022/04/26 04:19:19;;;;;;;21.67;10.32;;;;;;;9.84;100.00;101075.88;5066194;28;20052;-73
2022/04/26 04:21:46;;;;;;;23.48;10.52;;;;;;;9.82;100.00;101073.50;5069600;28;20052;-75
2022/04/26 04:24:14;;;;;;;23.15;10.65;;;;;;;9.86;100.00;101084.59;5066536;28;20049;-73
2022/04/26 04:26:41;;;;;;;24.20;11.63;;;;;;;9.85;100.00;101089.31;5048820;28;20103;-74
2022/04/26 04:29:08;;;;;;;20.25;10.35;;;;;;;9.86;100.00;101090.91;5074707;28;20083;-71
2022/04/26 04:31:35;;;;;;;28.85;12.32;;;;;;;9.89;100.00;101090.13;5071583;28;20140;-71
2022/04/26 04:34:02;;;;;;;26.30;11.05;;;;;;;9.88;100.00;101093.28;5075395;28;20052;-71
2022/04/26 04:36:29;;;;;;;25.60;11.02;;;;;;;9.88;100.00;101098.81;5071318;28;20048;-74
2022/04/26 04:38:56;;;;;;;25.48;10.30;;;;;;;9.86;100.00;101093.66;5069097;28;21721;-73
2022/04/26 04:41:24;;;;;;;24.77;10.55;;;;;;;9.86;100.00;101088.13;5065680;28;20436;-72
2022/04/26 04:43:50;;;;;;;26.42;11.73;;;;;;;9.85;100.00;101094.03;5070036;28;20058;-72
2022/04/26 04:46:17;;;;;;;24.50;11.80;;;;;;;9.78;100.00;101094.78;5070431;28;20049;-72
2022/04/26 04:48:44;;;;;;;23.98;10.38;;;;;;;9.82;100.00;101097.59;5065721;28;20052;-71
2022/04/26 04:51:10;;;;;;;25.80;11.60;;;;;;;9.74;100.00;101107.81;5069905;28;20147;-72
2022/04/26 04:53:37;;;;;;;22.55;10.95;;;;;;;9.76;100.00;101112.94;5067338;28;20048;-72
2022/04/26 04:56:08;;;;;;;20.58;9.57;;;;;;;9.77;100.00;101123.63;5060648;28;20821;-72
2022/04/26 04:58:35;;;;;;;21.73;9.68;;;;;;;9.78;100.00;101116.09;5071741;28;20132;-74
2022/04/26 05:01:02;;;;;;;23.88;9.80;;;;;;;9.74;100.00;101113.31;5072051;28;20060;-73
2022/04/26 05:03:28;;;;;;;22.60;9.30;;;;;;;9.76;100.00;101118.47;5069792;28;20047;-72
2022/04/26 05:05:55;;;;;;;22.00;9.15;;;;;;;9.77;100.00;101126.38;5069845;28;20047;-73
2022/04/26 05:08:21;;;;;;;27.20;11.27;;;;;;;9.71;100.00;101130.66;5073591;28;20465;-73
2022/04/26 05:10:48;;;;;;;28.10;12.70;;;;;;;9.75;100.00;101134.25;5067392;28;20048;-72
2022/04/26 05:13:14;;;;;;;26.55;9.73;;;;;;;9.77;100.00;101134.66;5067524;28;20135;-72
2022/04/26 05:15:44;;;;;;;21.20;9.77;;;;;;;9.80;100.00;101138.63;5068862;28;20665;-72
2022/04/26 05:18:14;;;;;;;23.48;11.02;;;;;;;9.79;100.00;101137.06;5068472;28;20055;-72
2022/04/26 05:20:40;;;;;;;24.35;11.73;;;;;;;9.82;100.00;101144.59;5064115;28;20056;-73
2022/04/26 05:25:52;;;;;;;23.20;10.07;;;;;;;9.91;100.00;101143.09;5069911;28;20055;-73
2022/04/26 05:28:18;;;;;;;23.45;10.50;;;;;;;9.90;100.00;101138.75;5069841;28;21012;-71
2022/04/26 05:30:53;;;;;;;22.98;10.63;;;;;;;9.97;100.00;101138.78;5069214;28;20048;-73
2022/04/26 05:33:21;;;;;;;20.52;9.75;;;;;;;10.07;100.00;101146.41;5068806;28;20055;-72
2022/04/26 05:35:48;;;;;;;24.08;11.15;;;;;;;10.12;100.00;101139.69;5069390;28;20051;-72
2022/04/26 05:38:15;;;;;;;23.65;11.52;;;;;;;10.20;100.00;101144.91;5077697;28;20776;-74
2022/04/26 05:40:42;;;;;;;24.90;10.65;;;;;;;10.17;100.00;101137.38;5070209;28;20044;-77
2022/04/26 05:43:09;;;;;;;23.13;9.80;;;;;;;10.23;100.00;101151.66;5065202;28;20049;-76
2022/04/26 05:45:36;;;;;;;23.95;11.02;;;;;;;10.27;100.00;101149.72;5064710;28;20419;-75
2022/04/26 05:48:08;;;;;;;25.05;10.75;;;;;;;10.28;100.00;101149.31;5061446;28;20070;-75
2022/04/26 05:50:34;;;;;;;21.38;9.55;;;;;;;10.30;100.00;101148.94;5064652;28;20056;-80
2022/04/26 05:53:01;;;;;;;25.45;11.27;;;;;;;10.26;100.00;101148.91;5067123;28;20699;-75
2022/04/26 05:55:28;;;;;;;25.50;12.05;;;;;;;10.31;100.00;101156.84;5057627;28;20477;-78
2022/04/26 05:57:55;;;;;;;24.13;11.00;;;;;;;10.32;100.00;101158.44;5068661;28;20063;-77
2022/04/26 06:00:21;;;;;;;21.95;10.30;;;;;;;10.32;100.00;101160.41;5068544;28;20048;-76
2022/04/26 06:02:49;;;;;;;25.90;10.43;;;;;;;10.32;100.00;101165.94;5067055;28;20055;-76
2022/04/26 06:05:19;;;;;;;20.38;10.05;;;;;;;10.36;100.00;101163.97;5060648;28;20553;-75
2022/04/26 06:07:45;;;;;;;21.40;10.32;;;;;;;10.37;100.00;101163.59;5070485;28;20087;-76
2022/04/26 06:10:12;;;;;;;25.88;10.55;;;;;;;10.36;100.00;101156.47;5066850;28;20509;-75
2022/04/26 06:12:41;;;;;;;32.28;11.48;;;;;;;10.45;100.00;101170.78;5063697;28;20080;-76
2022/04/26 06:15:08;;;;;;;26.20;11.90;;;;;;;10.46;100.00;101163.25;5068190;28;20070;-76
2022/04/26 06:17:35;;;;;;;23.65;11.05;;;;;;;10.50;100.00;101162.09;5064362;28;20136;-75
2022/04/26 06:20:02;;;;;;;23.38;10.93;;;;;;;10.57;100.00;101170.44;5067700;28;20123;-79
2022/04/26 06:22:28;;;;;;;25.92;10.07;;;;;;;10.56;100.00;101173.59;5066137;28;20043;-76
2022/04/26 06:24:54;;;;;;;24.83;11.57;;;;;;;10.64;100.00;101186.31;5066367;28;20405;-75
2022/04/26 06:27:21;;;;;;;23.23;11.05;;;;;;;10.65;100.00;101179.59;5062265;28;20045;-77
2022/04/26 06:29:48;;;;;;;23.65;11.25;;;;;;;10.66;100.00;101177.63;5065898;28;20072;-76
2022/04/26 06:32:14;;;;;;;21.13;10.27;;;;;;;10.67;100.00;101187.50;5062890;28;20470;-75
2022/04/26 06:34:41;;;;;;;22.50;10.35;;;;;;;10.77;100.00;101186.78;5048314;28;20153;-76
2022/04/26 06:37:07;;;;;;;26.98;11.63;;;;;;;10.84;100.00;101189.56;5067105;28;20053;-78
2022/04/26 06:39:34;;;;;;;23.05;10.45;;;;;;;10.88;100.00;101179.31;5062837;28;20398;-74
2022/04/26 06:42:01;;;;;;;24.67;11.98;;;;;;;11.00;100.00;101190.06;5065591;28;20055;-74
2022/04/26 06:44:28;;;;;;;27.63;13.05;;;;;;;11.06;100.00;101186.53;5067483;28;20087;-74
2022/04/26 06:47:00;;;;;;;23.20;10.32;;;;;;;11.16;100.00;101185.78;5062511;28;20067;-72
2022/04/26 06:49:26;;;;;;;29.83;12.80;;;;;;;11.23;100.00;101185.00;5069530;28;20083;-75
2022/04/26 06:51:53;;;;;;;24.65;10.68;;;;;;;11.22;100.00;101189.75;5067029;28;20059;-73
2022/04/26 06:54:19;;;;;;;28.27;12.27;;;;;;;11.27;100.00;101194.13;5068708;28;20393;-74
2022/04/26 06:56:46;;;;;;;24.40;11.55;;;;;;;11.34;100.00;101192.16;5073361;28;20068;-74
2022/04/26 06:59:13;;;;;;;25.73;12.40;;;;;;;11.38;100.00;101192.19;5055591;28;20069;-73
2022/04/26 07:01:40;;;;;;;26.15;13.07;;;;;;;11.44;100.00;101196.16;5062012;28;20067;-73
2022/04/26 07:04:08;;;;;;;26.00;12.80;;;;;;;11.53;100.00;101196.56;5067274;28;20125;-73
2022/04/26 07:06:37;;;;;;;23.30;11.15;;;;;;;11.58;100.00;101196.97;5062980;28;20099;-73
2022/04/26 07:09:03;;;;;;;24.55;10.98;;;;;;;11.66;100.00;101198.63;5068023;28;20444;-74
2022/04/26 07:11:30;;;;;;;27.05;11.82;;;;;;;11.70;100.00;101202.19;5062610;28;20485;-73
2022/04/26 07:13:57;;;;;;;28.65;12.70;;;;;;;11.77;100.00;101204.16;5052751;28;20124;-73
2022/04/26 07:16:24;;;;;;;28.30;12.27;;;;;;;11.80;100.00;101203.38;5068429;28;20591;-73
2022/04/26 07:18:51;;;;;;;18.08;9.68;;;;;;;11.75;100.00;101201.03;5067653;28;20148;-72
2022/04/26 07:21:18;;;;;;;28.35;11.82;;;;;;;11.80;100.00;101203.38;5058357;28;20048;-73
2022/04/26 07:23:45;;;;;;;29.55;13.40;;;;;;;11.87;100.00;101206.16;5063671;28;20045;-72
2022/04/26 07:26:12;;;;;;;25.08;12.43;;;;;;;11.96;100.00;101212.13;5080301;28;20052;-76
2022/04/26 07:28:38;;;;;;;28.40;13.73;;;;;;;12.06;100.00;101208.56;5058763;28;20183;-72
2022/04/26 07:31:05;;;;;;;25.92;13.23;;;;;;;12.14;100.00;101201.84;5061955;28;20206;-73
2022/04/26 07:36:19;;;;;;;30.88;13.25;;;;;;;12.31;100.00;101209.38;5068258;28;20044;-71
2022/04/26 07:38:46;;;;;;;28.77;13.45;;;;;;;12.39;100.00;101210.97;5066309;28;20060;-72
2022/04/26 07:41:13;;;;;;;27.77;14.30;;;;;;;12.40;100.00;101210.56;5069065;28;20100;-73
2022/04/26 07:43:39;;;;;;;30.85;15.45;;;;;;;12.45;100.00;101214.91;5063593;28;20563;-71
2022/04/26 07:46:06;;;;;;;29.10;14.88;;;;;;;12.50;100.00;101215.31;5069421;28;20449;-75
2022/04/26 07:48:34;;;;;;;31.75;15.88;;;;;;;12.63;100.00;101210.13;5069577;28;20165;-67
2022/04/26 07:51:01;;;;;;;28.27;15.88;;;;;;;12.77;100.00;101215.66;5065148;28;20060;-74
2022/04/26 07:53:28;;;;;;;30.27;14.38;;;;;;;12.80;100.00;101206.53;5074588;28;20562;-76
2022/04/26 07:55:55;;;;;;;26.90;13.90;;;;;;;12.86;100.00;101216.81;5072278;28;20553;-72
2022/04/26 07:58:21;;;;;;;31.27;15.40;;;;;;;12.92;100.00;101222.75;5067401;28;20118;-72
2022/04/26 08:00:48;;;;;;;32.30;14.40;;;;;;;13.01;100.00;101223.16;5070024;28;20071;-73
2022/04/26 08:03:16;;;;;;;28.38;14.73;;;;;;;13.18;100.00;101222.31;5070036;28;20048;-73
2022/04/26 08:05:43;;;;;;;25.80;12.55;;;;;;;13.23;100.00;101227.44;5072090;28;20087;-73
2022/04/26 08:08:10;;;;;;;30.55;15.05;;;;;;;13.22;100.00;101225.09;5068006;28;20109;-72
2022/04/26 08:10:37;;;;;;;30.23;14.98;;;;;;;13.06;100.00;101224.75;5073803;28;20420;-75
2022/04/26 08:13:04;;;;;;;34.42;15.95;;;;;;;13.07;100.00;101226.31;5067570;28;20152;-72
2022/04/26 08:15:30;;;;;;;30.63;15.27;;;;;;;13.00;100.00;101232.69;5052560;28;20053;-73
2022/04/26 08:17:57;;;;;;;27.20;12.63;;;;;;;13.08;100.00;101239.81;5073366;28;20064;-76
2022/04/26 08:20:24;;;;;;;29.05;15.98;;;;;;;13.27;100.00;101239.34;5071751;28;20098;-72
2022/04/26 08:22:52;;;;;;;29.33;14.68;;;;;;;13.33;100.00;101242.50;5070725;28;20048;-71
2022/04/26 08:28:04;;;;;;;28.60;15.55;;;;;;;13.50;100.00;101256.31;5062739;28;20143;-72
2022/04/26 08:30:30;;;;;;;24.35;11.30;;;;;;;13.52;100.00;101265.06;5065171;28;20070;-71
2022/04/26 08:32:57;;;;;;;28.77;15.27;;;;;;;13.52;99.27;101253.94;5075085;28;20819;-75
2022/04/26 08:35:27;;;;;;;30.30;15.05;;;;;;;13.64;100.00;101258.25;5073369;28;20046;-72
2022/04/26 08:38:13;;;;;;;30.63;14.90;;;;;;;13.78;100.00;101256.19;5063916;28;20155;-73
2022/04/26 08:40:43;;;;;;;32.20;16.27;;;;;;;13.94;100.00;101262.03;5067666;28;20091;-72
2022/04/26 08:43:10;;;;;;;29.50;14.23;;;;;;;14.06;99.23;101247.66;5070451;28;20048;-72
2022/04/26 08:45:41;;;;;;;32.08;15.32;;;;;;;14.14;99.41;101257.53;5066923;28;20068;-74
2022/04/26 08:51:04;;;;;;;31.73;13.80;;;;;;;14.26;97.27;101254.31;5069952;28;20067;-72
2022/04/26 08:53:33;;;;;;;31.00;14.60;;;;;;;14.32;97.38;101263.81;5073723;28;20122;-73
2022/04/26 08:56:03;;;;;;;28.75;14.38;;;;;;;14.31;96.10;101269.78;5077428;28;20140;-73
2022/04/26 08:58:32;;;;;;;26.48;13.88;;;;;;;14.23;94.90;101266.25;5068409;28;20139;-75
2022/04/26 09:01:08;;;;;;;23.13;11.70;;;;;;;14.21;96.35;101282.53;5057322;28;20108;-73
2022/04/26 09:03:38;;;;;;;24.10;13.05;;;;;;;14.12;96.42;101276.66;5064302;28;20048;-71
2022/04/26 09:06:08;;;;;;;29.38;14.35;;;;;;;14.04;95.64;101285.44;5067505;28;20064;-73
2022/04/26 09:08:36;;;;;;;28.52;15.27;;;;;;;14.04;96.76;101286.22;5077923;28;20080;-71
2022/04/26 09:11:04;;;;;;;24.63;14.70;;;;;;;14.00;96.06;101291.03;5063023;28;20067;-72
2022/04/26 09:13:39;;;;;;;26.95;13.45;;;;;;;14.01;94.42;101292.59;5066206;28;20172;-74
2022/04/26 09:16:15;;;;;;;30.15;17.05;;;;;;;14.08;93.92;101295.38;5066498;28;20516;-71
2022/04/26 09:18:54;;;;;;;31.38;16.45;;;;;;;14.21;95.22;101292.91;5069483;28;20424;-72
2022/04/26 09:21:22;;;;;;;28.70;15.07;;;;;;;14.32;95.44;101297.22;5065039;28;20095;-73
2022/04/26 09:23:49;;;;;;;30.35;15.32;;;;;;;14.45;94.67;101303.09;5058373;28;20772;-72
2022/04/26 09:26:17;;;;;;;26.02;14.23;;;;;;;14.49;93.21;101304.66;5062777;28;20151;-72
2022/04/26 09:28:50;;;;;;;30.30;16.52;;;;;;;14.55;94.09;101314.13;5089609;28;20125;-72
2022/04/26 09:31:22;;;;;;;26.58;15.65;;;;;;;14.60;93.14;101308.13;5064202;28;20714;-74
2022/04/26 09:34:04;;;;;;;27.95;15.40;;;;;;;14.66;94.28;101294.56;5069440;28;20079;-77
2022/04/26 09:36:35;;;;;;;27.50;15.73;;;;;;;14.79;93.89;101309.56;5069667;28;20125;-73
2022/04/26 09:39:04;;;;;;;27.42;14.48;;;;;;;14.88;93.75;101307.88;5062053;28;20048;-72
2022/04/26 09:41:33;;;;;;;30.17;16.02;;;;;;;15.01;93.21;101313.72;5067505;28;20056;-72
2022/04/26 09:44:01;;;;;;;32.47;16.42;;;;;;;15.08;89.56;101317.22;5057582;28;20508;-73
2022/04/26 09:46:40;;;;;;;28.63;15.32;;;;;;;15.10;89.20;101312.06;5068657;28;20048;-72
2022/04/26 09:49:11;;;;;;;27.65;14.50;;;;;;;15.25;90.04;101316.25;5062534;28;20584;-74
2022/04/26 09:51:38;;;;;;;30.45;15.65;;;;;;;15.52;89.93;101328.34;5062513;28;20143;-75
2022/04/26 09:54:05;;;;;;;30.15;14.80;;;;;;;15.80;89.12;101318.03;5063414;28;20055;-74
2022/04/26 09:56:33;;;;;;;29.08;16.38;;;;;;;15.98;85.37;101324.16;5068393;28;20050;-75
2022/04/26 09:59:02;;;;;;;27.73;14.77;;;;;;;16.23;83.91;101310.66;5069480;28;20072;-73
2022/04/26 10:01:37;;;;;;;27.27;14.50;;;;;;;16.46;82.61;101313.50;5065491;28;20056;-76
2022/04/26 10:04:06;;;;;;;30.60;16.10;;;;;;;16.53;79.41;101311.41;5061838;28;20099;-72
2022/04/26 10:06:38;;;;;;;24.70;13.40;;;;;;;16.64;78.46;101316.84;5062981;28;20052;-74
2022/04/26 10:09:07;;;;;;;26.95;15.52;;;;;;;16.78;77.57;101311.78;5070675;28;20098;-73
2022/04/26 10:11:35;;;;;;;24.38;13.05;;;;;;;16.92;77.04;101307.97;5066247;28;20087;-76
2022/04/26 10:14:04;;;;;;;24.45;14.73;;;;;;;17.06;76.53;101304.91;5068908;28;20129;-71
2022/04/26 10:16:32;;;;;;;24.63;14.50;;;;;;;17.17;75.95;101311.09;5067664;28;20816;-70
2022/04/26 10:19:11;;;;;;;24.15;13.18;;;;;;;17.09;74.02;101316.03;5067388;28;20052;-71
2022/04/26 10:21:40;;;;;;;22.77;13.63;;;;;;;17.04;71.12;101312.94;5069358;28;20070;-76
2022/04/26 10:24:11;;;;;;;28.63;13.88;;;;;;;17.03;72.17;101314.94;5065303;28;20520;-70
2022/04/26 10:26:38;;;;;;;28.13;13.98;;;;;;;17.04;72.18;101316.50;5067576;28;20135;-73
2022/04/26 10:29:07;;;;;;;27.02;15.05;;;;;;;17.13;73.69;101307.56;5063733;28;20052;-74
2022/04/26 10:31:46;;;;;;;27.23;13.82;;;;;;;17.14;73.62;101325.91;5067121;28;20447;-75
2022/04/26 10:34:31;;;;;;;26.40;14.57;;;;;;;17.23;71.85;101321.38;5066453;28;20093;-74
2022/04/26 10:37:08;;;;;;;26.55;15.13;;;;;;;17.47;73.50;101316.53;5063515;28;20148;-73
2022/04/26 10:39:56;;;;;;;25.73;14.18;;;;;;;17.82;73.68;101316.59;5064627;28;20136;-75
2022/04/26 10:42:27;;;;;;;28.50;14.88;;;;;;;18.18;73.00;101307.41;5067378;28;20086;-74
2022/04/26 10:45:06;;;;;;;24.25;14.73;;;;;;;18.14;68.34;101321.50;5064468;28;20083;-74
2022/04/26 10:47:34;;;;;;;26.25;15.30;;;;;;;17.98;65.88;101315.84;5060394;28;20511;-74
2022/04/26 10:50:02;;;;;;;29.35;16.10;;;;;;;17.87;65.98;101320.91;5066729;28;20412;-74
2022/04/26 10:52:33;;;;;;;26.33;15.20;;;;;;;17.69;66.02;101328.88;5067559;28;20869;-77
2022/04/26 10:55:05;;;;;;;31.77;15.80;;;;;;;17.75;68.07;101330.72;5061677;28;20136;-74
2022/04/26 10:57:39;;;;;;;26.42;14.75;;;;;;;17.63;69.33;101333.41;5053441;28;20036;-69
2022/04/26 11:00:33;;;;;;;27.05;15.35;;;;;;;17.41;65.83;101332.19;5066529;28;20151;-73
2022/04/26 11:03:03;;;;;;;26.02;16.10;;;;;;;17.56;66.52;101328.72;5058396;28;20048;-74
2022/04/26 11:05:32;;;;;;;28.95;16.08;;;;;;;17.79;68.23;101328.66;5068580;28;20052;-73
2022/04/26 11:07:59;;;;;;;26.30;14.10;;;;;;;18.04;67.51;101336.53;5066294;28;20131;-74
2022/04/26 11:10:27;;;;;;;24.95;14.40;;;;;;;18.06;63.82;101336.88;5066263;28;20090;-74
2022/04/26 11:12:56;;;;;;;25.35;14.98;;;;;;;18.19;63.63;101331.41;5067405;28;20135;-74
2022/04/26 11:15:24;;;;;;;23.77;14.57;;;;;;;18.28;63.47;101334.38;5064750;28;20048;-73
2022/04/26 11:17:53;;;;;;;26.88;15.57;;;;;;;18.51;64.07;101337.88;5058398;28;20191;-73
2022/04/26 11:20:24;;;;;;;26.67;15.48;;;;;;;18.80;62.79;101323.97;5066585;28;20098;-74
2022/04/26 11:22:56;;;;;;;25.13;14.52;;;;;;;18.83;60.93;101337.88;5074375;28;20094;-73
2022/04/26 11:28:17;;;;;;;26.52;14.13;;;;;;;18.61;60.00;101345.25;5065340;28;20072;-73
2022/04/26 11:30:52;;;;;;;29.23;18.38;;;;;;;18.59;60.89;101347.69;5071747;28;20052;-76
2022/04/26 11:33:23;;;;;;;27.35;17.48;;;;;;;18.57;60.39;101340.94;5069173;28;20098;-75
2022/04/26 11:36:04;;;;;;;30.65;18.65;;;;;;;18.56;60.72;101337.34;5069766;28;20127;-73
2022/04/26 11:38:31;;;;;;;30.95;17.77;;;;;;;18.84;59.83;101349.88;5097585;28;20045;-74
2022/04/26 11:41:00;;;;;;;23.10;11.07;;;;;;;18.84;56.47;101355.50;5070987;28;20083;-74
2022/04/26 11:43:27;;;;;;;28.67;18.73;;;;;;;18.74;57.12;101350.94;5071933;28;20053;-75
2022/04/26 11:45:56;;;;;;;29.30;16.90;;;;;;;18.55;57.94;101354.59;5079436;28;20052;-74
2022/04/26 11:48:25;;;;;;;24.60;16.70;;;;;;;18.43;58.68;101356.09;5064319;28;20049;-74
2022/04/26 11:50:53;;;;;;;31.50;17.50;;;;;;;18.30;59.96;101362.75;5068115;28;20041;-72
2022/04/26 11:53:22;;;;;;;28.77;19.45;;;;;;;18.17;60.17;101359.84;5064288;28;20531;-73
2022/04/26 11:55:56;;;;;;;34.33;20.73;;;;;;;18.26;60.69;101364.84;5068613;28;20432;-74
2022/04/26 11:58:35;;;;;;;32.65;20.75;;;;;;;18.49;60.88;101359.16;5067176;28;20045;-77
2022/04/26 12:01:12;;;;;;;31.48;19.58;;;;;;;18.98;59.27;101363.53;5070625;28;20083;-74
2022/04/26 12:03:50;;;;;;;30.80;18.90;;;;;;;19.57;59.66;101367.59;5070002;28;20079;-76
2022/04/26 12:06:31;;;;;;;25.50;15.68;;;;;;;19.97;52.78;101360.41;5063937;28;20055;-73
2022/04/26 12:09:00;;;;;;;28.25;16.63;;;;;;;20.27;51.68;101368.38;5061062;28;20413;-74
2022/04/26 12:11:29;;;;;;;25.63;16.40;;;;;;;20.29;50.39;101373.53;5066583;28;20369;-74
2022/04/26 12:13:59;;;;;;;27.17;17.08;;;;;;;20.06;51.07;101366.19;5064610;28;20048;-74
2022/04/26 12:16:26;;;;;;;23.98;15.75;;;;;;;19.86;51.11;101354.34;5067736;28;20163;-76
2022/04/26 12:19:00;;;;;;;22.50;15.40;;;;;;;19.62;48.76;101361.44;5070627;28;20044;-74
2022/04/26 12:21:27;;;;;;;26.83;16.15;;;;;;;19.98;49.43;101355.59;5063717;28;20114;-73
2022/04/26 12:24:11;;;;;;;25.33;14.27;;;;;;;20.66;49.46;101350.28;5068345;28;20135;-73
2022/04/26 12:26:51;;;;;;;26.42;18.08;;;;;;;21.47;47.67;101347.50;5061417;28;20063;-75
2022/04/26 12:29:18;;;;;;;24.30;14.88;;;;;;;21.53;46.07;101356.97;5062200;28;20109;-73
2022/04/26 12:31:47;;;;;;;28.08;17.98;;;;;;;21.47;46.97;101353.16;5068487;28;20064;-73
2022/04/26 12:34:19;;;;;;;23.55;16.33;;;;;;;21.08;45.61;101348.06;5072786;28;20741;-75
2022/04/26 12:37:03;;;;;;;23.40;15.50;;;;;;;21.48;45.29;101352.69;5067899;28;20147;-75
2022/04/26 12:39:48;;;;;;;25.48;16.80;;;;;;;22.11;45.85;101346.75;5059415;28;20127;-73
2022/04/26 12:42:16;;;;;;;24.33;15.90;;;;;;;22.45;44.84;101346.59;5065677;28;20435;-73
2022/04/26 12:44:54;;;;;;;22.30;14.73;;;;;;;22.61;42.21;101349.19;5067847;28;20588;-73
2022/04/26 12:50:29;;;;;;;25.23;15.02;;;;;;;23.93;41.76;101355.16;5062289;28;20048;-74
2022/04/26 12:53:19;;;;;;;28.10;14.07;;;;;;;24.07;40.04;101352.47;5065530;28;20203;-75
2022/04/26 12:55:46;;;;;;;21.55;15.90;;;;;;;24.62;40.80;101350.22;5059987;28;20056;-69
2022/04/26 12:58:15;;;;;;;28.27;14.90;;;;;;;25.00;40.02;101356.81;5063499;28;20045;-70
2022/04/26 13:00:52;;;;;;;18.80;10.10;;;;;;;24.69;36.67;101361.22;5065701;28;20050;-69
2022/04/26 13:03:22;;;;;;;23.30;15.27;;;;;;;24.57;38.33;101354.47;5067492;28;20048;-71
2022/04/26 13:05:51;;;;;;;22.23;14.98;;;;;;;23.86;38.13;101355.47;5069022;28;20056;-75
2022/04/26 13:08:20;;;;;;;21.13;14.57;;;;;;;23.48;40.19;101352.38;5065496;28;20159;-74
2022/04/26 13:10:48;;;;;;;20.98;13.57;;;;;;;23.54;40.05;101354.09;5063115;28;20512;-73
2022/04/26 13:13:15;;;;;;;23.90;14.20;;;;;;;23.98;38.79;101358.16;5069423;28;20515;-71
2022/04/26 13:15:42;;;;;;;23.17;13.35;;;;;;;24.08;38.53;101361.72;5065502;28;20082;-71
2022/04/26 13:18:12;;;;;;;24.30;15.23;;;;;;;23.79;38.91;101367.09;5062833;28;21398;-73
2022/04/26 13:20:39;;;;;;;24.90;15.35;;;;;;;23.01;39.63;101351.97;5068446;28;20103;-72
2022/04/26 13:23:15;;;;;;;23.02;14.50;;;;;;;22.55;40.87;101359.50;5061579;28;20147;-73
2022/04/26 13:25:42;;;;;;;22.25;12.55;;;;;;;21.98;41.47;101358.09;5067036;28;20083;-72
2022/04/26 13:28:09;;;;;;;22.63;13.85;;;;;;;21.37;41.99;101359.94;5067053;28;20516;-72
2022/04/26 13:30:36;;;;;;;22.73;13.73;;;;;;;21.13;42.81;101361.59;5062598;28;20090;-73
2022/04/26 13:33:03;;;;;;;23.42;13.07;;;;;;;20.60;44.26;101359.72;5066674;28;20052;-72
2022/04/26 13:35:30;;;;;;;22.75;14.40;;;;;;;20.27;45.28;101368.38;5067423;28;20060;-74
2022/04/26 13:37:58;;;;;;;22.98;13.95;;;;;;;19.84;45.61;101361.59;5074568;28;20044;-74
2022/04/26 13:40:26;;;;;;;21.17;13.50;;;;;;;19.49;46.06;101377.44;5066233;28;20056;-73
2022/04/26 13:42:56;;;;;;;24.10;14.48;;;;;;;19.36;46.34;101367.38;5063231;28;20481;-73
2022/04/26 13:45:23;;;;;;;26.40;15.60;;;;;;;19.14;47.36;101372.72;5063120;28;20112;-73
2022/04/26 13:47:50;;;;;;;23.08;14.32;;;;;;;18.99;47.75;101371.53;5050002;28;20076;-77
2022/04/26 13:50:18;;;;;;;24.73;15.55;;;;;;;18.86;47.94;101367.84;5060885;28;20412;-75
2022/04/26 13:52:45;;;;;;;26.52;13.48;;;;;;;18.67;48.44;101371.53;5055128;28;20056;-73
2022/04/26 13:55:17;;;;;;;25.55;14.43;;;;;;;18.72;48.50;101364.59;5060733;28;20052;-73
2022/04/26 13:57:44;;;;;;;23.27;12.82;;;;;;;18.63;48.18;101367.22;5064456;28;20091;-71
2022/04/26 14:00:12;;;;;;;22.98;14.57;;;;;;;18.72;48.45;101368.19;5068125;28;20487;-71
2022/04/26 14:02:45;;;;;;;23.52;15.32;;;;;;;18.76;48.49;101365.31;5065136;28;20137;-73
2022/04/26 14:05:13;;;;;;;25.00;14.02;;;;;;;18.68;48.64;101370.28;5056575;28;20432;-71
2022/04/26 14:07:40;;;;;;;25.25;14.90;;;;;;;18.69;49.32;101366.25;5066239;28;20071;-72
2022/04/26 14:10:08;;;;;;;22.20;13.77;;;;;;;18.69;48.83;101363.44;5076172;28;20113;-71
2022/04/26 14:12:36;;;;;;;21.80;13.95;;;;;;;18.72;48.65;101365.38;5060736;28;20199;-73
2022/04/26 14:23:28;;;;;;;23.88;14.00;;;;;;;18.71;48.99;101375.03;5058667;28;20148;-73
2022/04/26 14:25:59;;;;;;;22.35;13.70;;;;;;;18.61;49.04;101370.47;5065875;28;20414;-71
2022/04/26 14:28:25;;;;;;;23.45;13.90;;;;;;;18.69;49.58;101371.09;5068913;28;20080;-72
2022/04/26 14:30:52;;;;;;;21.77;12.77;;;;;;;18.61;48.69;101376.06;5062355;28;20048;-72
2022/04/26 14:33:19;;;;;;;22.65;12.07;;;;;;;18.63;48.96;101384.81;5063445;28;20048;-74
2022/04/26 14:35:45;;;;;;;23.17;13.68;;;;;;;18.67;48.33;101376.34;5061453;28;20161;-74
2022/04/26 14:38:12;;;;;;;20.95;11.93;;;;;;;18.67;48.10;101379.94;5058879;28;20640;-72
2022/04/26 14:40:39;;;;;;;20.17;12.63;;;;;;;18.70;48.37;101381.84;5059240;28;20127;-72
2022/04/26 14:43:07;;;;;;;21.70;13.13;;;;;;;18.73;48.48;101383.78;5056447;28;20084;-75
2022/04/26 14:45:42;;;;;;;26.35;12.43;;;;;;;18.75;48.73;101377.72;5074324;28;20048;-71
2022/04/26 14:48:10;;;;;;;24.27;13.77;;;;;;;18.84;48.22;101378.72;5058226;28;20175;-73
2022/04/26 14:50:38;;;;;;;20.00;12.25;;;;;;;18.97;48.09;101387.22;5054169;28;20124;-72
2022/04/26 14:53:05;;;;;;;21.17;11.52;;;;;;;18.95;46.93;101382.03;5058490;28;20144;-72
2022/04/26 14:55:51;;;;;;;22.95;12.07;;;;;;;19.12;46.71;101388.44;5063638;28;20066;-72
2022/04/26 14:58:19;;;;;;;21.75;11.68;;;;;;;19.45;46.24;101387.97;5063131;28;20044;-71
2022/04/26 15:00:45;;;;;;;20.75;11.25;;;;;;;19.57;45.77;101390.03;5060522;28;20609;-71
2022/04/26 15:03:12;;;;;;;19.13;9.73;;;;;;;19.78;45.80;101394.28;5061306;28;20048;-71
2022/04/26 15:05:38;;;;;;;17.42;9.80;;;;;;;19.90;44.91;101388.72;5061829;28;20135;-73
2022/04/26 15:10:50;;;;;;;17.67;9.60;;;;;;;20.23;44.18;101386.56;5058059;28;20667;-71
2022/04/26 15:18:47;;;;;;;20.05;11.20;;;;;;;20.24;43.94;101388.94;5053626;28;20041;-71
2022/04/26 15:21:13;;;;;;;18.13;9.90;;;;;;;20.42;44.35;101390.41;5060315;28;20051;-71
2022/04/26 15:23:40;;;;;;;19.65;10.60;;;;;;;20.28;43.47;101386.00;5060444;28;20151;-72
2022/04/26 15:26:08;;;;;;;17.48;8.82;;;;;;;19.85;43.47;101378.00;5058618;28;20067;-72